createdAt,value
2019-01-24T00:00:01.524Z,-2.2
2019-01-24T00:05:02.152Z,-2.2
2019-01-24T00:10:02.020Z,-2.2
2019-01-24T00:15:01.544Z,-2.2
2019-01-24T00:20:01.436Z,-2.2
2019-01-24T00:25:02.075Z,-2.2
2019-01-24T00:30:01.815Z,-2.2
2019-01-24T00:35:01.869Z,-2.2
2019-01-24T00:40:01.556Z,-2.2
2019-01-24T00:45:01.947Z,-2.2
2019-01-24T00:50:02.072Z,-2.2
2019-01-24T00:55:01.610Z,-2.2
2019-01-24T01:00:01.538Z,-2.2
2019-01-24T01:05:01.321Z,-2.2
2019-01-24T01:10:02.249Z,-2.2
2019-01-24T01:15:01.996Z,-2.2
2019-01-24T01:20:02.145Z,-2.2
2019-01-24T01:25:01.445Z,-2.2
2019-01-24T01:30:02.339Z,-2.2
2019-01-24T01:35:02.496Z,-2.2
2019-01-24T01:40:02.202Z,-2.2
2019-01-24T01:45:02.015Z,-2.2
2019-01-24T01:50:01.964Z,-2.2
2019-01-24T01:55:01.742Z,-2.2
2019-01-24T02:00:01.462Z,-2.2
2019-01-24T02:05:01.781Z,-2.2
2019-01-24T02:10:01.642Z,-2.2
2019-01-24T02:15:01.833Z,-2.2
2019-01-24T02:20:01.881Z,-2.2
2019-01-24T02:25:01.553Z,-2.2
2019-01-24T02:30:01.684Z,-2.2
2019-01-24T02:35:01.532Z,-2.2
2019-01-24T02:40:01.617Z,-2.2
2019-01-24T02:45:02.133Z,-2.2
2019-01-24T02:50:02.316Z,-2.2
2019-01-24T02:55:01.959Z,-2.2
2019-01-24T03:00:01.735Z,-2.2
2019-01-24T03:05:01.435Z,-2.2
2019-01-24T03:10:01.728Z,-2.2
2019-01-24T03:15:01.558Z,-2.2
2019-01-24T03:20:01.565Z,-2.2
2019-01-24T03:25:02.289Z,-2.2
2019-01-24T03:30:02.158Z,-2.2
2019-01-24T03:35:04.154Z,-2.2
2019-01-24T03:40:01.842Z,-2.2
2019-01-24T03:45:02.426Z,-2.2
2019-01-24T03:50:01.378Z,-2.2
2019-01-24T03:55:01.989Z,-2.2
2019-01-24T04:00:02.032Z,-2.2
2019-01-24T04:05:02.075Z,-2.2
2019-01-24T04:10:01.449Z,-2.2
2019-01-24T04:15:01.684Z,-2.2
2019-01-24T04:20:01.462Z,-2.2
2019-01-24T04:25:01.508Z,-2.2
2019-01-24T04:30:01.676Z,-2.2
2019-01-24T04:35:01.660Z,-2.2
2019-01-24T04:40:01.784Z,-2.2
2019-01-24T04:45:02.127Z,-2.2
2019-01-24T04:50:01.247Z,-2.2
2019-01-24T04:55:01.929Z,-2.2
2019-01-24T05:00:01.699Z,-2.2
2019-01-24T05:05:01.815Z,-2.2
2019-01-24T05:10:02.495Z,-2.2
2019-01-24T05:15:01.379Z,-2.2
2019-01-24T05:20:01.217Z,-2.2
2019-01-24T05:25:01.819Z,-2.2
2019-01-24T05:30:01.482Z,-2.2
2019-01-24T05:35:02.146Z,-2.2
2019-01-24T05:40:02.192Z,-2.2
2019-01-24T05:45:02.069Z,-2.2
2019-01-24T05:50:01.807Z,-2.2
2019-01-24T05:55:01.245Z,-2.2
2019-01-24T06:00:01.460Z,-2.2
2019-01-24T06:05:01.572Z,-2.2
2019-01-24T06:10:01.515Z,-2.2
2019-01-24T06:15:02.123Z,-2.2
2019-01-24T06:20:02.369Z,-2.2
2019-01-24T06:25:01.787Z,-2.2
2019-01-24T06:30:01.159Z,-2.2
2019-01-24T06:35:02.188Z,-2.2
2019-01-24T06:40:01.933Z,-2.2
2019-01-24T06:45:02.011Z,-2.2
2019-01-24T06:50:01.925Z,-2.2
2019-01-24T06:55:01.932Z,-2.2
2019-01-24T07:00:01.535Z,-2.2
2019-01-24T07:05:01.545Z,-2.2
2019-01-24T07:10:01.890Z,-2.2
2019-01-24T07:15:01.419Z,-2.2
2019-01-24T07:20:02.070Z,-2.2
2019-01-24T07:25:02.279Z,-2.2
2019-01-24T07:30:01.584Z,-2.2
2019-01-24T07:35:01.778Z,-2.2
2019-01-24T07:40:01.906Z,-2.2
2019-01-24T07:45:01.969Z,-2.2
2019-01-24T07:50:01.595Z,-2.2
2019-01-24T07:55:02.044Z,-2.2
2019-01-24T08:00:01.630Z,-2.2
2019-01-24T08:05:02.036Z,-2.2
2019-01-24T08:10:01.327Z,-2.2
2019-01-24T08:15:01.954Z,-2.2
2019-01-24T08:20:01.478Z,-2.2
2019-01-24T08:25:01.671Z,-2.2
2019-01-24T08:30:02.390Z,-2.2
2019-01-24T08:35:01.193Z,-2.2
2019-01-24T08:40:02.138Z,-2.2
2019-01-24T08:45:01.632Z,-2.2
2019-01-24T08:50:01.730Z,-2.2
2019-01-24T08:55:01.919Z,-2.2
2019-01-24T09:00:01.345Z,-2.2
2019-01-24T09:05:01.334Z,-2.2
2019-01-24T09:10:02.210Z,-2.2
2019-01-24T09:15:01.459Z,-2.2
2019-01-24T09:20:01.514Z,-2.2
2019-01-24T09:25:01.336Z,-2.2
2019-01-24T09:30:01.697Z,-2.2
2019-01-24T09:35:02.109Z,-2.2
2019-01-24T09:40:01.973Z,-2.2
2019-01-24T09:45:02.086Z,-2.2
2019-01-24T09:50:01.203Z,-2.2
2019-01-24T09:55:01.578Z,-2.2
2019-01-24T10:00:02.053Z,-2.2
2019-01-24T10:05:01.975Z,-2.2
2019-01-24T10:10:02.210Z,-2.2
2019-01-24T10:15:01.221Z,-2.2
2019-01-24T10:20:01.504Z,-2.2
2019-01-24T10:25:01.417Z,-2.2
2019-01-24T10:30:02.264Z,-2.2
2019-01-24T10:35:01.981Z,-2.2
2019-01-24T10:40:01.841Z,-2.2
2019-01-24T10:45:01.439Z,-2.2
2019-01-24T10:50:01.831Z,-2.2
2019-01-24T10:55:02.043Z,-2.2
2019-01-24T11:00:01.885Z,-2.2
2019-01-24T11:05:02.074Z,-2.2
2019-01-24T11:10:01.972Z,-2.2
2019-01-24T11:15:01.464Z,-2.2
2019-01-24T11:20:01.645Z,-2.2
2019-01-24T11:25:01.594Z,-2.2
2019-01-24T11:30:01.203Z,-2.2
2019-01-24T11:35:02.031Z,-2.2
2019-01-24T11:40:02.107Z,-2.2
2019-01-24T11:45:01.425Z,-2.2
2019-01-24T11:50:02.016Z,-2.2
2019-01-24T11:55:01.838Z,-2.2
2019-01-24T12:00:01.650Z,-2.2
2019-01-24T12:05:01.931Z,-2.2
2019-01-24T12:10:01.519Z,-2.2
2019-01-24T12:15:02.152Z,-2.2
2019-01-24T12:20:02.118Z,-2.2
2019-01-24T12:25:01.861Z,-2.2
2019-01-24T12:30:01.763Z,-2.2
2019-01-24T12:35:02.057Z,-2.2
2019-01-24T12:40:02.340Z,-2.2
2019-01-24T12:45:01.496Z,-2.2
2019-01-24T12:50:01.833Z,-2.2
2019-01-24T12:55:01.296Z,-2.2
2019-01-24T13:00:01.567Z,-2.2
2019-01-24T13:05:01.939Z,-2.2
2019-01-24T13:10:01.387Z,-2.2
2019-01-24T13:15:01.760Z,-2.2
2019-01-24T13:20:01.729Z,-2.2
2019-01-24T13:25:01.352Z,-2.2
2019-01-24T13:30:01.945Z,-2.2
2019-01-24T13:35:02.430Z,-2.2
2019-01-24T13:40:02.208Z,-2.2
2019-01-24T13:45:01.381Z,-2.2
2019-01-24T13:50:01.621Z,-2.2
2019-01-24T13:55:01.407Z,-2.2
2019-01-24T14:00:02.170Z,-2.2
2019-01-24T14:05:01.704Z,-2.2
2019-01-24T14:10:01.927Z,-2.2
2019-01-24T14:15:01.933Z,-2.2
2019-01-24T14:20:01.404Z,-2.2
2019-01-24T14:25:01.467Z,-2.2
2019-01-24T14:30:01.855Z,-2.2
2019-01-24T14:35:01.357Z,-2.2
2019-01-24T14:40:01.605Z,-2.2
2019-01-24T14:45:01.929Z,-2.2
2019-01-24T14:50:01.722Z,-2.2
2019-01-24T14:55:01.978Z,-2.2
2019-01-24T15:00:01.737Z,-2.2
2019-01-24T15:05:01.803Z,-2.2
2019-01-24T15:10:02.751Z,-2.2
2019-01-24T15:15:01.666Z,-2.2
2019-01-24T15:20:01.673Z,-2.2
2019-01-24T15:25:01.620Z,-2.2
2019-01-24T15:30:01.754Z,-2.2
2019-01-24T15:35:01.781Z,-2.2
2019-01-24T15:40:01.978Z,-2.2
2019-01-24T15:45:02.276Z,-2.2
2019-01-24T15:50:01.495Z,-2.2
2019-01-24T15:55:01.806Z,-2.2
2019-01-24T16:00:02.459Z,-2.2
2019-01-24T16:05:02.761Z,-2.2
2019-01-24T16:10:01.516Z,-2.2
2019-01-24T16:15:01.879Z,-2.2
2019-01-24T16:20:02.163Z,-2.2
2019-01-24T16:25:01.881Z,-2.2
2019-01-24T16:30:02.108Z,-2.2
2019-01-24T16:35:01.890Z,-2.2
2019-01-24T16:40:02.031Z,-2.2
2019-01-24T16:45:01.776Z,-2.2
2019-01-24T16:50:02.577Z,-2.2
2019-01-24T16:55:01.405Z,-2.2
2019-01-24T17:00:01.905Z,-2.2
2019-01-24T17:05:01.897Z,-2.2
2019-01-24T17:10:01.634Z,-2.2
2019-01-24T17:15:01.514Z,-2.2
2019-01-24T17:20:02.115Z,-2.2
2019-01-24T17:25:01.809Z,-2.2
2019-01-24T17:30:02.374Z,-2.2
2019-01-24T17:35:02.200Z,-2.2
2019-01-24T17:40:01.811Z,-2.2
2019-01-24T17:45:01.495Z,-2.2
2019-01-24T17:50:01.740Z,-2.2
2019-01-24T17:55:01.814Z,-2.2
2019-01-24T18:00:01.666Z,-2.2
2019-01-24T18:05:02.402Z,-2.2
2019-01-24T18:10:02.230Z,-2.2
2019-01-24T18:15:01.931Z,-2.2
2019-01-24T18:20:02.304Z,-2.2
2019-01-24T18:25:02.239Z,-2.2
2019-01-24T18:30:01.156Z,-2.2
2019-01-24T18:35:02.375Z,-2.2
2019-01-24T18:40:01.793Z,-2.2
2019-01-24T18:45:01.342Z,-2.2
2019-01-24T18:50:01.761Z,-2.2
2019-01-24T18:55:01.966Z,-2.2
2019-01-24T19:00:01.249Z,-2.2
2019-01-24T19:05:01.430Z,-2.2
2019-01-24T19:10:02.049Z,-2.2
2019-01-24T19:15:01.150Z,-2.2
2019-01-24T19:20:01.920Z,-2.2
2019-01-24T19:25:01.422Z,-2.2
2019-01-24T19:30:02.215Z,-2.2
2019-01-24T19:35:02.044Z,-2.2
2019-01-24T19:40:02.086Z,-2.2
2019-01-24T19:45:01.354Z,-2.2
2019-01-24T19:50:01.686Z,-2.2
2019-01-24T19:55:01.837Z,-2.2
2019-01-24T20:00:01.692Z,-2.2
2019-01-24T20:05:02.025Z,-2.2
2019-01-24T20:10:01.985Z,-2.2
2019-01-24T20:15:01.237Z,-2.2
2019-01-24T20:20:01.839Z,-2.2
2019-01-24T20:25:02.112Z,-2.2
2019-01-24T20:30:01.776Z,-2.2
2019-01-24T20:35:01.944Z,-2.2
2019-01-24T20:40:02.069Z,-2.2
2019-01-24T20:45:01.887Z,-2.2
2019-01-24T20:50:02.115Z,-2.2
2019-01-24T20:55:02.037Z,-2.2
2019-01-24T21:00:01.446Z,-2.2
2019-01-24T21:05:02.335Z,-2.2
2019-01-24T21:10:02.191Z,-2.2
2019-01-24T21:15:01.798Z,-2.2
2019-01-24T21:20:01.465Z,-2.2
2019-01-24T21:25:01.983Z,-2.2
2019-01-24T21:30:01.868Z,-2.2
2019-01-24T21:35:01.683Z,-2.2
2019-01-24T21:40:03.628Z,-0.1
2019-01-24T21:45:02.192Z,-0.5
2019-01-24T21:50:02.305Z,-0.6
2019-01-24T21:55:02.287Z,-0.8
2019-01-24T22:00:02.151Z,-1
2019-01-24T22:05:01.599Z,-1
2019-01-24T22:10:01.588Z,-1.1
2019-01-24T22:15:02.334Z,-1
2019-01-24T22:20:01.413Z,-1.1
2019-01-24T22:25:01.891Z,-1.2
2019-01-24T22:30:01.837Z,-1.2
2019-01-24T22:35:01.688Z,-1.2
2019-01-24T22:40:01.554Z,-1.2
2019-01-24T22:45:02.356Z,-1.3
2019-01-24T22:50:01.629Z,-1.2
2019-01-24T22:55:01.926Z,-1.2
2019-01-24T23:00:01.456Z,-1.3
2019-01-24T23:05:01.679Z,-1.3
2019-01-24T23:10:01.927Z,-1.3
2019-01-24T23:15:01.903Z,-1.3
2019-01-24T23:20:01.888Z,-1.3
2019-01-24T23:25:01.482Z,-1.3
2019-01-24T23:30:01.749Z,-1.4
2019-01-24T23:35:01.697Z,-1.5
2019-01-24T23:40:02.522Z,-1.5
2019-01-24T23:45:01.705Z,-1.5
2019-01-24T23:50:01.359Z,-1.6
2019-01-24T23:55:01.469Z,-1.5
